• Join FlightAware (Why Join?)
  • Login
  • US Flag 
09:12AM EST


 

Airport Tracker/Info


-or-


 

Live Flight TrackerFlight Track Log ✈ SKW7363 ✈ 17-Oct-2013 ✈ KMSP - KABR

Flight Track Log - Related Links

Times and Time Zones

All times are in EDT time to prevent confusion due to time zone crossing. See the SKW7363 flight status page for this flight to view local times or setup timezone preferences in your user account.

Time Position Orientation Groundspeed Altitude Reporting Facility
EDT Latitude Longitude Course Direction KTS MPH feet Rate Location/Type
12:43PM 44.9000 -93.2500 313° West 162 186 2,200  Level Minneapolis TRACON
12:44PM 44.9333 -93.3000 313° West 195 224 4,400 2,220 Climbing Minneapolis TRACON
12:45PM 44.9500 -93.3833 286° West 243 280 6,700 2,400 Climbing Minneapolis TRACON
12:46PM 44.9667 -93.4833 283° West 268 308 9,200 2,280 Climbing Minneapolis TRACON
12:47PM 44.9819 -93.5833 282° West 275 316 11,400 2,340 Climbing Minneapolis Center
12:48PM 44.9931 -93.6972 278° West 294 338 14,100 2,340 Climbing Minneapolis Center
12:49PM 45.0022 -93.8083 277° West 290 334 16,300 1,980 Climbing Minneapolis Center
12:50PM 45.0114 -93.9264 276° West 305 351 18,300 1,980 Climbing Minneapolis Center
12:51PM 45.0283 -94.0700 280° West 310 357 20,400 1,800 Climbing Minneapolis Center
12:52PM 45.0475 -94.1939 282° West 322 371 22,100 1,380 Climbing Minneapolis Center
12:53PM 45.0667 -94.3192 282° West 327 376 23,300 1,200 Climbing Minneapolis Center
12:54PM 45.0872 -94.4514 282° West 341 392 24,600 1,260 Climbing Minneapolis Center
12:55PM 45.1011 -94.5864 278° West 348 400 26,000 1,200 Climbing Minneapolis Center
12:56PM 45.1153 -94.7342 278° West 350 403 27,100 960 Climbing Minneapolis Center
12:57PM 45.1294 -94.8736 278° West 357 411 28,000 420 Climbing Minneapolis Center
12:58PM 45.1433 -95.0136 278° West 359 413 28,000  Level Minneapolis Center
12:59PM 45.1589 -95.1797 278° West 357 411 28,000  Level Minneapolis Center
01:00PM 45.1722 -95.3167 278° West 353 406 28,000  Level Minneapolis Center
01:01PM 45.1847 -95.4500 278° West 345 397 28,000  Level Minneapolis Center
01:02PM 45.1967 -95.5814 277° West 340 391 28,000 -60 Level Minneapolis Center
01:03PM 45.2083 -95.7103 277° West 334 384 27,900 -720 Descending Minneapolis Center
01:04PM 45.2217 -95.8544 278° West 314 361 26,600 -1,200 Descending Minneapolis Center
01:05PM 45.2314 -95.9669 277° West 298 343 25,500 -1,080 Descending Minneapolis Center
01:06PM 45.2392 -96.0717 276° West 278 320 24,400 -1,140 Descending Minneapolis Center
01:07PM 45.2494 -96.1700 278° West 261 300 23,200 -1,260 Descending Minneapolis Center
01:09PM 45.2519 -96.2728 272° West 260 299 21,800 -1,440 Descending Minneapolis Center
01:10PM 45.2514 -96.3992 270° West 266 306 20,300 -1,380 Descending Minneapolis Center
01:11PM 45.2511 -96.4986 270° West 258 297 19,000 -1,260 Descending Minneapolis Center
01:12PM 45.2525 -96.5953 271° West 250 288 17,700 -1,260 Descending Minneapolis Center
01:13PM 45.2533 -96.6881 271° West 241 277 16,400 -1,260 Descending Minneapolis Center
01:14PM 45.2514 -96.7792 268° West 234 269 15,100 -1,260 Descending Minneapolis Center
01:15PM 45.2478 -96.8689 267° West 231 266 13,800 -1,260 Descending Minneapolis Center
01:16PM 45.2447 -96.9811 268° West 237 273 12,600 -1,020 Descending Minneapolis Center
01:17PM 45.2436 -97.0817 269° West 249 287 11,800 -780 Descending Minneapolis Center
01:18PM 45.2431 -97.1803 270° West 252 290 11,000 -780 Descending Minneapolis Center
01:19PM 45.2414 -97.2789 269° West 252 290 10,200 -780 Descending Minneapolis Center
01:20PM 45.2406 -97.3775 269° West 251 289 9,400 -900 Descending Minneapolis Center
01:21PM 45.2411 -97.4939 270° West 248 285 8,400 -900 Descending Minneapolis Center
01:22PM 45.2392 -97.5917 268° West 249 287 7,600 -720 Descending Minneapolis Center
01:23PM 45.2372 -97.6894 268° West 248 285 6,900 -780 Descending Minneapolis Center
01:24PM 45.2328 -97.7906 266° West 249 287 6,100 -420 Descending Minneapolis Center
01:25PM 45.2289 -97.8836 267° West 243 280 6,100  Level Minneapolis Center
01:26PM 45.2256 -97.9736 267° West 235 270 6,100 -180 Level Minneapolis Center
01:27PM 45.2286 -98.0664 273° West 234 269 5,800 -720 Descending Minneapolis Center
01:28PM 45.2519 -98.1447 293° West 227 261 4,700 -1,080 Descending Minneapolis Center
01:29PM 45.3028 -98.2072 319° Northwest 212 244 3,600 -1,080 Descending Minneapolis Center
01:31PM 45.3697 -98.3143 312° West  Level FlightAware Approximate
01:38PM 45.4333 -98.4167 299° West  Level FlightAware Approximate
01:39PM 45.4491 -98.4218 299° West  Level Estimated
01:40PM 45.4491 -98.4218 299° West  Level Estimated
01:41PM 45.4491 -98.4218 299° West  Level Estimated